Main page
METAR-TAF:

METAR-TAF

Airports :

Sachs Harbour (David Nasogaluak Jr. Saaryuaq) Airport

Sachs Harbour, Northwest Territories, Canada

latitude: 72-00N, longitude: 125-17W, elevation: 86 m

Current weather observation

The report was made 1 hour and 4 minutes ago, at 17:00 UTC
Wind 10 kt from the Northeast
Temperature -32°C
Humidity 74%
Pressure 1013 hPa
Visibility: 16.1 km
Few clouds at a height of 9000 ft

METAR: CYSY 061700Z 05010KT 10SM FEW090 M32/M35 A2990 RMK AC2 SLP144

Time: 11:04 (18:04 UTC)

Forecast

The report was made 2 hours and 26 minutes ago, at 15:38 UTC
Forecast valid from 06 at 16 UTC to 06 at 24 UTC
Wind 15 kt from the Northeast
Visibility: 10 km
Few clouds at a height of 5000 ft
Becoming
from 06 at 17 UTC to 06 at 19 UTC
Wind 12 kt from the East

TAF: CYSY 061538Z 0616/0624 05015KT P6SM FEW050 BECMG 0617/0619 09012KT RMK NXT FCST BY 061900Z

Weather observations and forecasts of more than 4000 airports (METAR and TAF reports).

The available stations are represented by yellow and red dots on the map.

Hover mouse over dot to see the name of the station.

Then click to see weather observations and forecasts.

To change the map : click on the green buttons with a black cross to zoom in, on the green button with a dash to zoom out, or on the green arrows for adjacent maps.


METAR-TAF: